Search for airport 
image banner adimage banner adimage banner ad
image banner ad

37PA - Roadcap

Located in Middleburg, United States

ICAO - 37PA, IATA -

Data provided by Airmate  

General information

Coordinates: N40°47'18" W77°6'22"
Elevation is 731 feet MSL.
Magnetic variation is -10° East
View others Airports in Pennsylvania

Operational data

Special qualification required
Current time UTC:
Current local time:
Weather at : KSEG - Penn Valley ( 21 km )
METAR: KSEG 091153Z AUTO 00000KT 10SM CLR 06/04 A3011 RMK AO2 SLP197 70007 T00610044 10061 20017 50002
View NOTAMs / SUP AIP / TFR affecting this airport [VIEW]
Communications frequencies: [VIEW]

Runways:

RWY identifierQFULength (ft)Width (ft)SurfaceLDA (ft)
092500100GRASS
272500100GRASS

Airport contact information

Address: Middleburg United States

Satellite view of 37PA